createdAt,value
2023-04-10T00:01:22.358Z,99.90
2023-04-10T00:03:50.888Z,99.90
2023-04-10T00:06:19.230Z,99.90
2023-04-10T00:08:47.605Z,99.90
2023-04-10T00:11:15.737Z,99.90
2023-04-10T00:13:44.178Z,99.90
2023-04-10T00:16:13.679Z,99.90
2023-04-10T00:18:42.071Z,99.90
2023-04-10T00:21:10.162Z,99.90
2023-04-10T00:23:38.595Z,99.90
2023-04-10T00:26:07.625Z,99.90
2023-04-10T00:28:38.334Z,99.90
2023-04-10T00:31:07.116Z,99.90
2023-04-10T00:33:36.563Z,99.90
2023-04-10T00:36:04.897Z,99.90
2023-04-10T00:38:33.057Z,99.90
2023-04-10T00:41:01.180Z,99.90
2023-04-10T00:43:29.290Z,99.90
2023-04-10T00:45:57.489Z,99.90
2023-04-10T00:48:25.738Z,99.90
2023-04-10T00:50:55.607Z,99.90
2023-04-10T00:53:23.777Z,99.90
2023-04-10T00:55:52.074Z,99.90
2023-04-10T00:58:20.426Z,99.90
2023-04-10T01:00:49.166Z,99.90
2023-04-10T01:03:21.153Z,99.90
2023-04-10T01:06:07.808Z,99.90
2023-04-10T01:08:47.253Z,99.90
2023-04-10T01:11:23.106Z,99.90
2023-04-10T01:13:59.947Z,99.90
2023-04-10T01:16:32.734Z,99.90
2023-04-10T01:19:11.896Z,99.90
2023-04-10T01:21:43.103Z,99.90
2023-04-10T01:24:29.625Z,99.90
2023-04-10T01:27:13.104Z,99.90
2023-04-10T01:29:47.564Z,99.90
2023-04-10T01:32:18.850Z,99.90
2023-04-10T01:34:50.674Z,99.90
2023-04-10T01:37:21.845Z,99.90
2023-04-10T01:39:55.878Z,99.90
2023-04-10T01:42:25.738Z,99.90
2023-04-10T01:44:55.818Z,99.90
2023-04-10T01:47:26.473Z,99.90
2023-04-10T01:49:55.992Z,99.90
2023-04-10T01:52:25.983Z,99.90
2023-04-10T01:54:55.158Z,99.90
2023-04-10T01:57:24.126Z,99.90
2023-04-10T01:59:53.880Z,99.90
2023-04-10T02:02:22.629Z,99.90
2023-04-10T02:04:52.027Z,99.90
2023-04-10T02:07:26.529Z,99.90
2023-04-10T02:10:01.396Z,99.90
2023-04-10T02:12:32.068Z,99.90
2023-04-10T02:15:05.487Z,99.90
2023-04-10T02:17:35.820Z,99.90
2023-04-10T02:20:06.224Z,99.90
2023-04-10T02:22:34.881Z,99.90
2023-04-10T02:25:06.880Z,99.90
2023-04-10T02:27:36.484Z,99.90
2023-04-10T02:30:07.704Z,99.90
2023-04-10T02:32:36.937Z,99.90
2023-04-10T02:35:06.182Z,99.90
2023-04-10T02:37:34.798Z,99.90
2023-04-10T02:40:03.172Z,99.90
2023-04-10T02:42:31.251Z,99.90
2023-04-10T02:44:59.680Z,99.90
2023-04-10T02:47:29.149Z,99.90
2023-04-10T02:49:57.567Z,99.90
2023-04-10T02:52:25.708Z,99.90
2023-04-10T02:54:53.844Z,99.90
2023-04-10T02:57:23.039Z,99.90
2023-04-10T02:59:52.077Z,99.90
2023-04-10T03:02:20.685Z,99.90
2023-04-10T03:04:50.282Z,99.90
2023-04-10T03:07:18.669Z,99.90
2023-04-10T03:09:46.758Z,99.90
2023-04-10T03:12:14.879Z,99.90
2023-04-10T03:14:43.355Z,99.90
2023-04-10T03:17:12.291Z,99.90
2023-04-10T03:19:40.356Z,99.90
2023-04-10T03:22:11.111Z,99.90
2023-04-10T03:24:40.024Z,99.90
2023-04-10T03:27:08.456Z,99.90
2023-04-10T03:29:36.581Z,99.90
2023-04-10T03:32:04.818Z,99.90
2023-04-10T03:34:32.973Z,99.90
2023-04-10T03:37:01.035Z,99.90
2023-04-10T03:39:30.505Z,99.90
2023-04-10T03:41:58.566Z,99.90
2023-04-10T03:44:27.623Z,99.90
2023-04-10T03:46:55.726Z,99.90
2023-04-10T03:49:24.168Z,99.90
2023-04-10T03:51:52.217Z,99.90
2023-04-10T03:54:20.793Z,99.90
2023-04-10T03:56:50.567Z,99.90
2023-04-10T03:59:18.643Z,99.90
2023-04-10T04:01:47.085Z,99.90
2023-04-10T04:04:15.517Z,99.90
2023-04-10T04:06:44.006Z,99.90
2023-04-10T04:09:13.097Z,99.90
2023-04-10T04:11:41.508Z,99.90
2023-04-10T04:14:11.201Z,99.90
2023-04-10T04:16:39.779Z,99.90
2023-04-10T04:19:08.068Z,99.90
2023-04-10T04:21:36.163Z,99.90
2023-04-10T04:24:04.328Z,99.90
2023-04-10T04:26:32.628Z,99.90
2023-04-10T04:29:00.692Z,99.90
2023-04-10T04:31:32.934Z,99.90
2023-04-10T04:34:01.071Z,99.90
2023-04-10T04:36:29.250Z,99.90
2023-04-10T04:38:57.342Z,99.90
2023-04-10T04:41:25.603Z,99.90
2023-04-10T04:43:55.869Z,99.90
2023-04-10T04:46:24.201Z,99.90
2023-04-10T04:48:54.174Z,99.90
2023-04-10T04:51:22.363Z,99.90
2023-04-10T04:53:50.900Z,99.90
2023-04-10T04:56:19.060Z,99.90
2023-04-10T04:58:47.188Z,99.90
2023-04-10T05:01:16.043Z,99.90
2023-04-10T05:03:44.228Z,99.90
2023-04-10T05:06:14.775Z,99.90
2023-04-10T05:08:43.179Z,99.90
2023-04-10T05:11:11.342Z,99.90
2023-04-10T05:13:39.753Z,99.90
2023-04-10T05:16:08.953Z,99.90
2023-04-10T05:18:37.530Z,99.90
2023-04-10T05:21:06.344Z,99.90
2023-04-10T05:23:36.232Z,99.90
2023-04-10T05:26:04.353Z,99.90
2023-04-10T05:28:32.441Z,99.90
2023-04-10T05:31:01.120Z,99.90
2023-04-10T05:33:29.274Z,99.90
2023-04-10T05:35:57.466Z,99.90
2023-04-10T05:38:25.979Z,99.90
2023-04-10T05:40:56.003Z,99.90
2023-04-10T05:43:24.423Z,99.90
2023-04-10T05:45:52.536Z,99.90
2023-04-10T05:48:20.670Z,99.90
2023-04-10T05:50:48.756Z,99.90
2023-04-10T05:53:20.392Z,99.90
2023-04-10T05:55:52.331Z,99.90
2023-04-10T05:58:21.819Z,99.90
2023-04-10T06:00:49.997Z,99.90
2023-04-10T06:03:18.451Z,99.90
2023-04-10T06:05:46.638Z,99.90
2023-04-10T06:08:14.800Z,99.90
2023-04-10T06:10:42.930Z,99.90
2023-04-10T06:13:11.482Z,99.90
2023-04-10T06:15:40.985Z,99.90
2023-04-10T06:18:09.436Z,99.90
2023-04-10T06:20:37.855Z,99.90
2023-04-10T06:23:07.108Z,99.90
2023-04-10T06:25:35.637Z,99.90
2023-04-10T06:28:03.748Z,99.90
2023-04-10T06:30:34.014Z,99.90
2023-04-10T06:33:03.531Z,99.90
2023-04-10T06:35:32.132Z,99.90
2023-04-10T06:38:00.374Z,99.90
2023-04-10T06:40:29.768Z,99.90
2023-04-10T06:42:57.898Z,99.90
2023-04-10T06:45:26.028Z,99.90
2023-04-10T06:47:54.569Z,99.90
2023-04-10T06:50:24.812Z,99.90
2023-04-10T06:52:56.259Z,99.90
2023-04-10T06:55:24.389Z,99.90
2023-04-10T06:57:52.509Z,99.90
2023-04-10T07:00:21.636Z,99.90
2023-04-10T07:02:50.263Z,99.90
2023-04-10T07:05:18.803Z,99.90
2023-04-10T07:07:50.591Z,99.90
2023-04-10T07:10:18.802Z,99.90
2023-04-10T07:12:46.951Z,99.90
2023-04-10T07:15:15.056Z,99.90
2023-04-10T07:17:43.548Z,99.90
2023-04-10T07:20:13.049Z,99.90
2023-04-10T07:22:41.198Z,99.90
2023-04-10T07:25:11.471Z,99.90
2023-04-10T07:27:39.876Z,99.90
2023-04-10T07:30:09.818Z,99.90
2023-04-10T07:32:40.079Z,99.90
2023-04-10T07:35:09.478Z,99.90
2023-04-10T07:37:39.773Z,99.90
2023-04-10T07:40:11.475Z,99.90
2023-04-10T07:42:39.902Z,99.90
2023-04-10T07:45:09.728Z,99.90
2023-04-10T07:47:38.142Z,99.90
2023-04-10T07:50:07.759Z,99.90
2023-04-10T07:52:36.524Z,99.90
2023-04-10T07:55:05.332Z,99.90
2023-04-10T07:57:35.115Z,99.90
2023-04-10T08:00:03.559Z,99.90
2023-04-10T08:02:31.861Z,99.90
2023-04-10T08:05:00.510Z,99.90
2023-04-10T08:07:28.659Z,99.90
2023-04-10T08:09:57.054Z,99.90
2023-04-10T08:12:25.266Z,99.90
2023-04-10T08:14:55.105Z,99.90
2023-04-10T08:17:23.675Z,99.90
2023-04-10T08:19:51.785Z,99.90
2023-04-10T08:22:20.150Z,99.90
2023-04-10T08:24:48.384Z,99.90
2023-04-10T08:27:17.021Z,99.90
2023-04-10T08:29:45.143Z,99.90
2023-04-10T08:32:14.701Z,99.20
2023-04-10T08:34:42.846Z,99.40
2023-04-10T08:37:12.582Z,98.90
2023-04-10T08:39:40.694Z,97.90
2023-04-10T08:42:09.196Z,99.90
2023-04-10T08:44:38.049Z,96.70
2023-04-10T08:47:07.314Z,95.90
2023-04-10T08:49:44.750Z,95.80
2023-04-10T08:52:17.785Z,96.00
2023-04-10T08:54:50.525Z,95.30
2023-04-10T08:57:20.713Z,97.10
2023-04-10T08:59:49.925Z,94.80
2023-04-10T09:02:18.385Z,92.70
2023-04-10T09:04:50.749Z,99.60
2023-04-10T09:07:19.378Z,94.60
2023-04-10T09:09:47.757Z,93.50
2023-04-10T09:12:16.236Z,96.20
2023-04-10T09:14:44.736Z,92.70
2023-04-10T09:17:18.206Z,92.50
2023-04-10T09:19:49.167Z,91.40
2023-04-10T09:22:18.019Z,94.30
2023-04-10T09:24:48.865Z,93.00
2023-04-10T09:27:33.927Z,91.80
2023-04-10T09:30:02.554Z,99.40
2023-04-10T09:32:41.851Z,95.80
2023-04-10T09:35:13.603Z,90.00
2023-04-10T09:37:42.389Z,90.60
2023-04-10T09:40:22.222Z,90.70
2023-04-10T09:42:50.534Z,92.10
2023-04-10T09:45:20.200Z,90.30
2023-04-10T09:48:03.573Z,90.90
2023-04-10T09:50:40.179Z,88.70
2023-04-10T09:53:09.178Z,91.20
2023-04-10T09:55:37.961Z,92.00
2023-04-10T09:58:06.554Z,90.70
2023-04-10T10:00:40.599Z,88.30
2023-04-10T10:03:10.530Z,90.00
2023-04-10T10:05:44.848Z,93.20
2023-04-10T10:08:14.682Z,90.60
2023-04-10T10:10:47.091Z,91.40
2023-04-10T10:13:19.375Z,89.90
2023-04-10T10:15:55.766Z,90.20
2023-04-10T10:18:31.891Z,88.40
2023-04-10T10:21:04.058Z,89.40
2023-04-10T10:23:34.442Z,93.80
2023-04-10T10:26:06.209Z,89.90
2023-04-10T10:28:35.261Z,87.20
2023-04-10T10:31:05.061Z,88.80
2023-04-10T10:33:37.048Z,88.60
2023-04-10T10:36:08.168Z,89.50
2023-04-10T10:38:41.072Z,90.20
2023-04-10T10:41:15.594Z,90.40
2023-04-10T10:43:53.464Z,90.20
2023-04-10T10:46:39.301Z,89.70
2023-04-10T10:49:07.474Z,91.00
2023-04-10T10:51:47.787Z,93.30
2023-04-10T10:54:33.124Z,89.90
2023-04-10T10:57:01.730Z,90.00
2023-04-10T10:59:58.156Z,88.70
2023-04-10T11:02:27.245Z,90.20
2023-04-10T11:04:55.932Z,90.60
2023-04-10T11:08:04.092Z,90.90
2023-04-10T11:11:05.710Z,90.30
2023-04-10T11:13:34.732Z,90.80
2023-04-10T11:16:04.467Z,90.30
2023-04-10T11:19:13.795Z,87.20
2023-04-10T11:22:03.606Z,89.00
2023-04-10T11:24:53.442Z,92.00
2023-04-10T11:27:45.160Z,87.90
2023-04-10T11:30:33.722Z,86.40
2023-04-10T11:33:03.982Z,90.20
2023-04-10T11:35:33.664Z,92.00
2023-04-10T11:38:16.858Z,88.00
2023-04-10T11:41:05.657Z,89.50
2023-04-10T11:43:35.401Z,90.90
2023-04-10T11:46:06.547Z,90.20
2023-04-10T11:48:35.288Z,91.20
2023-04-10T11:51:10.897Z,92.00
2023-04-10T11:53:39.680Z,92.80
2023-04-10T11:56:17.723Z,90.10
2023-04-10T11:58:45.919Z,88.70
2023-04-10T12:01:15.676Z,90.60
2023-04-10T12:03:45.271Z,91.20
2023-04-10T12:06:15.998Z,90.50
2023-04-10T12:08:46.524Z,89.30
2023-04-10T12:11:18.882Z,88.70
2023-04-10T12:13:47.193Z,88.80
2023-04-10T12:16:17.086Z,88.10
2023-04-10T12:18:45.889Z,86.80
2023-04-10T12:21:14.152Z,88.40
2023-04-10T12:23:43.582Z,89.10
2023-04-10T12:26:17.694Z,90.00
2023-04-10T12:28:53.658Z,85.60
2023-04-10T12:31:29.377Z,84.90
2023-04-10T12:33:58.858Z,87.20
2023-04-10T12:36:30.486Z,88.30
2023-04-10T12:38:59.651Z,84.50
2023-04-10T12:41:31.699Z,85.20
2023-04-10T12:44:10.414Z,84.60
2023-04-10T12:46:39.459Z,88.70
2023-04-10T12:49:12.078Z,87.50
2023-04-10T12:51:47.430Z,85.70
2023-04-10T12:54:37.518Z,84.00
2023-04-10T12:57:07.656Z,84.00
2023-04-10T12:59:35.986Z,84.40
2023-04-10T13:02:04.184Z,85.70
2023-04-10T13:04:33.272Z,88.00
2023-04-10T13:07:01.732Z,86.60
2023-04-10T13:09:30.135Z,85.30
2023-04-10T13:11:58.488Z,85.50
2023-04-10T13:14:28.300Z,85.40
2023-04-10T13:16:56.795Z,84.60
2023-04-10T13:19:24.951Z,84.20
2023-04-10T13:21:53.050Z,83.30
2023-04-10T13:24:21.119Z,84.80
2023-04-10T13:26:49.271Z,85.30
2023-04-10T13:29:17.334Z,85.10
2023-04-10T13:31:47.107Z,83.90
2023-04-10T13:34:15.421Z,83.40
2023-04-10T13:36:43.589Z,84.20
2023-04-10T13:39:12.098Z,82.40
2023-04-10T13:41:40.225Z,82.20
2023-04-10T13:44:08.387Z,80.70
2023-04-10T13:46:36.572Z,83.70
2023-04-10T13:49:06.163Z,83.00
2023-04-10T13:51:34.285Z,84.20
2023-04-10T13:54:05.025Z,83.60
2023-04-10T13:56:33.379Z,83.50
2023-04-10T13:59:01.451Z,83.80
2023-04-10T14:01:30.101Z,83.80
2023-04-10T14:03:58.543Z,84.00
2023-04-10T14:06:28.336Z,84.40
2023-04-10T14:08:56.761Z,86.20
2023-04-10T14:11:24.920Z,83.20
2023-04-10T14:13:53.455Z,84.80
2023-04-10T14:16:21.566Z,84.80
2023-04-10T14:18:49.767Z,85.60
2023-04-10T14:21:19.425Z,86.80
2023-04-10T14:23:50.206Z,87.20
2023-04-10T14:26:18.325Z,85.20
2023-04-10T14:28:46.674Z,85.60
2023-04-10T14:31:14.768Z,85.40
2023-04-10T14:33:42.917Z,85.20
2023-04-10T14:36:11.621Z,86.00
2023-04-10T14:38:40.190Z,86.10
2023-04-10T14:41:09.838Z,86.20
2023-04-10T14:43:38.655Z,86.60
2023-04-10T14:46:07.354Z,87.10
2023-04-10T14:48:35.621Z,86.30
2023-04-10T14:51:05.757Z,85.80
2023-04-10T14:53:33.890Z,86.50
2023-04-10T14:56:02.024Z,86.90
2023-04-10T14:58:31.556Z,86.80
2023-04-10T15:00:59.710Z,86.50
2023-04-10T15:03:27.904Z,86.00
2023-04-10T15:06:00.829Z,86.40
2023-04-10T15:08:28.938Z,86.80
2023-04-10T15:10:57.432Z,87.00
2023-04-10T15:13:25.980Z,87.60
2023-04-10T15:15:56.322Z,86.00
2023-04-10T15:18:25.596Z,86.80
2023-04-10T15:20:55.301Z,88.10
2023-04-10T15:23:23.533Z,88.90
2023-04-10T15:25:51.975Z,88.10
2023-04-10T15:28:20.100Z,88.10
2023-04-10T15:30:49.706Z,88.70
2023-04-10T15:33:19.389Z,89.60
2023-04-10T15:35:49.728Z,89.90
2023-04-10T15:38:17.860Z,88.70
2023-04-10T15:40:46.010Z,90.10
2023-04-10T15:43:14.154Z,90.30
2023-04-10T15:45:42.282Z,90.60
2023-04-10T15:48:10.454Z,90.20
2023-04-10T15:50:40.448Z,89.60
2023-04-10T15:53:08.984Z,89.20
2023-04-10T15:55:40.566Z,89.50
2023-04-10T15:58:08.960Z,89.40
2023-04-10T16:00:37.154Z,88.40
2023-04-10T16:03:05.841Z,90.00
2023-04-10T16:05:34.457Z,90.70
2023-04-10T16:08:05.096Z,91.40
2023-04-10T16:10:33.216Z,92.00
2023-04-10T16:13:04.575Z,91.30
2023-04-10T16:15:35.381Z,91.00
2023-04-10T16:18:04.513Z,91.20
2023-04-10T16:20:33.291Z,90.70
2023-04-10T16:23:01.732Z,90.40
2023-04-10T16:25:31.572Z,90.30
2023-04-10T16:27:59.669Z,90.10
2023-04-10T16:30:27.820Z,90.50
2023-04-10T16:32:56.634Z,90.70
2023-04-10T16:35:24.749Z,91.20
2023-04-10T16:37:53.294Z,90.40
2023-04-10T16:40:21.518Z,90.80
2023-04-10T16:42:51.251Z,90.80
2023-04-10T16:45:19.500Z,90.70
2023-04-10T16:47:47.895Z,90.40
2023-04-10T16:50:16.152Z,90.40
2023-04-10T16:52:44.215Z,90.20
2023-04-10T16:55:12.817Z,90.10
2023-04-10T16:57:40.905Z,90.10
2023-04-10T17:00:11.996Z,89.50
2023-04-10T17:02:40.634Z,90.10
2023-04-10T17:05:08.875Z,90.00
2023-04-10T17:07:37.017Z,90.50
2023-04-10T17:10:06.360Z,90.00
2023-04-10T17:12:34.585Z,90.20
2023-04-10T17:15:02.891Z,90.00
2023-04-10T17:17:34.453Z,89.70
2023-04-10T17:20:02.826Z,90.10
2023-04-10T17:22:31.208Z,90.20
2023-04-10T17:24:59.373Z,91.00
2023-04-10T17:27:27.899Z,90.70
2023-04-10T17:29:56.258Z,91.00
2023-04-10T17:32:24.425Z,91.10
2023-04-10T17:34:53.916Z,91.10
2023-04-10T17:37:22.830Z,91.50
2023-04-10T17:39:52.313Z,91.90
2023-04-10T17:42:20.385Z,91.90
2023-04-10T17:44:48.764Z,92.20
2023-04-10T17:47:17.478Z,92.50
2023-04-10T17:49:46.022Z,92.90
2023-04-10T17:52:15.524Z,92.90
2023-04-10T17:54:43.657Z,93.10
2023-04-10T17:57:11.809Z,93.00
2023-04-10T17:59:39.930Z,92.60
2023-04-10T18:02:08.379Z,92.80
2023-04-10T18:04:36.570Z,92.90
2023-04-10T18:07:04.727Z,93.40
2023-04-10T18:09:34.214Z,93.50
2023-04-10T18:12:02.553Z,93.70
2023-04-10T18:14:30.764Z,93.80
2023-04-10T18:16:58.955Z,93.90
2023-04-10T18:19:27.077Z,94.10
2023-04-10T18:21:55.434Z,93.80
2023-04-10T18:24:23.560Z,94.00
2023-04-10T18:26:52.988Z,93.80
2023-04-10T18:29:21.096Z,93.90
2023-04-10T18:31:49.516Z,94.00
2023-04-10T18:34:17.629Z,94.10
2023-04-10T18:36:46.651Z,94.30
2023-04-10T18:39:15.016Z,94.20
2023-04-10T18:41:43.306Z,94.20
2023-04-10T18:44:12.821Z,94.10
2023-04-10T18:46:46.351Z,94.30
2023-04-10T18:49:16.922Z,94.50
2023-04-10T18:51:45.041Z,94.40
2023-04-10T18:54:13.334Z,94.40
2023-04-10T18:56:41.431Z,94.40
2023-04-10T18:59:09.534Z,93.80
2023-04-10T19:01:40.055Z,93.80
2023-04-10T19:04:08.334Z,93.60
2023-04-10T19:06:38.668Z,93.60
2023-04-10T19:09:06.904Z,93.50
2023-04-10T19:11:35.342Z,93.40
2023-04-10T19:14:03.441Z,93.40
2023-04-10T19:19:06.059Z,93.10
2023-04-10T19:21:34.487Z,93.10
2023-04-10T19:24:02.718Z,93.10
2023-04-10T19:26:30.853Z,93.10
2023-04-10T19:28:59.874Z,93.20
2023-04-10T19:31:29.904Z,93.20
2023-04-10T19:33:58.076Z,93.50
2023-04-10T19:36:28.155Z,93.40
2023-04-10T19:38:57.865Z,93.40
2023-04-10T19:41:26.465Z,93.60
2023-04-10T19:43:55.122Z,93.60
2023-04-10T19:46:23.694Z,93.60
2023-04-10T19:48:54.933Z,93.80
2023-04-10T19:51:23.069Z,93.80
2023-04-10T19:53:55.867Z,93.80
2023-04-10T19:56:24.276Z,93.70
2023-04-10T19:58:52.438Z,93.70
2023-04-10T20:01:20.751Z,93.80
2023-04-10T20:03:49.044Z,93.80
2023-04-10T20:06:17.769Z,94.10
2023-04-10T20:08:46.106Z,94.00
2023-04-10T20:11:15.530Z,93.90
2023-04-10T20:13:44.046Z,94.10
2023-04-10T20:16:12.316Z,94.00
2023-04-10T20:18:41.554Z,94.10
2023-04-10T20:21:09.771Z,94.10
2023-04-10T20:23:38.485Z,94.30
2023-04-10T20:26:07.047Z,94.20
2023-04-10T20:28:36.552Z,94.20
2023-04-10T20:31:05.056Z,94.20
2023-04-10T20:33:33.257Z,94.30
2023-04-10T20:36:01.367Z,94.30
2023-04-10T20:38:30.013Z,94.30
2023-04-10T20:40:58.081Z,94.60
2023-04-10T20:43:27.006Z,94.50
2023-04-10T20:45:56.487Z,94.40
2023-04-10T20:48:24.710Z,94.50
2023-04-10T20:50:53.003Z,94.60
2023-04-10T20:53:21.623Z,94.70
2023-04-10T20:55:54.054Z,94.70
2023-04-10T20:58:22.772Z,94.90
2023-04-10T21:00:52.582Z,94.80
2023-04-10T21:03:22.840Z,94.90
2023-04-10T21:05:53.452Z,94.80
2023-04-10T21:08:22.083Z,95.00
2023-04-10T21:10:51.526Z,94.90
2023-04-10T21:13:19.619Z,95.10
2023-04-10T21:15:49.715Z,94.70
2023-04-10T21:18:17.836Z,94.80
2023-04-10T21:20:47.470Z,94.80
2023-04-10T21:23:15.703Z,94.90
2023-04-10T21:25:51.017Z,94.80
2023-04-10T21:28:19.295Z,94.70
2023-04-10T21:30:47.440Z,94.80
2023-04-10T21:33:16.072Z,94.80
2023-04-10T21:35:44.914Z,94.80
2023-04-10T21:38:14.975Z,94.80
2023-04-10T21:40:43.087Z,94.80
2023-04-10T21:43:11.536Z,94.60
2023-04-10T21:45:40.294Z,94.60
2023-04-10T21:48:08.437Z,94.70
2023-04-10T21:50:36.586Z,94.60
2023-04-10T21:53:04.824Z,94.80
2023-04-10T21:55:34.647Z,94.80
2023-04-10T21:58:02.709Z,94.90
2023-04-10T22:00:31.074Z,94.80
2023-04-10T22:02:59.481Z,95.10
2023-04-10T22:05:27.938Z,95.20
2023-04-10T22:07:56.546Z,95.20
2023-04-10T22:10:24.671Z,95.40
2023-04-10T22:12:54.144Z,95.50
2023-04-10T22:15:22.286Z,95.60
2023-04-10T22:17:50.772Z,95.80
2023-04-10T22:20:18.993Z,95.90
2023-04-10T22:22:47.941Z,95.80
2023-04-10T22:25:16.060Z,95.70
2023-04-10T22:27:44.550Z,95.90
2023-04-10T22:30:14.945Z,96.00
2023-04-10T22:32:43.112Z,95.80
2023-04-10T22:35:11.299Z,95.70
2023-04-10T22:37:39.674Z,95.60
2023-04-10T22:40:09.006Z,95.60
2023-04-10T22:42:37.185Z,95.60
2023-04-10T22:45:05.964Z,95.40
2023-04-10T22:47:35.802Z,95.40
2023-04-10T22:50:04.456Z,95.30
2023-04-10T22:52:32.825Z,96.30
2023-04-10T22:55:00.959Z,96.50
2023-04-10T22:57:29.042Z,97.00
2023-04-10T22:59:59.347Z,98.70
2023-04-10T23:02:29.035Z,99.90
2023-04-10T23:04:58.857Z,99.90
2023-04-10T23:07:27.916Z,99.90
2023-04-10T23:09:56.132Z,99.90
2023-04-10T23:12:24.527Z,99.90
2023-04-10T23:14:52.589Z,99.90
2023-04-10T23:17:21.833Z,99.90
2023-04-10T23:19:49.935Z,99.90
2023-04-10T23:22:19.671Z,99.90
2023-04-10T23:24:47.903Z,99.90
2023-04-10T23:27:16.364Z,99.90
2023-04-10T23:29:44.436Z,99.90
2023-04-10T23:32:12.976Z,99.90
2023-04-10T23:34:41.069Z,99.90
2023-04-10T23:37:09.913Z,99.90
2023-04-10T23:39:39.643Z,99.90
2023-04-10T23:42:07.756Z,99.90
2023-04-10T23:44:35.878Z,99.90
2023-04-10T23:47:04.018Z,99.90
2023-04-10T23:49:32.702Z,99.90
2023-04-10T23:52:01.061Z,99.90
2023-04-10T23:54:30.635Z,99.90
2023-04-10T23:57:00.673Z,99.90
2023-04-10T23:59:29.019Z,99.90
